createdAt,value
2022-12-08T00:00:26.256Z,69.18
2022-12-08T00:01:26.263Z,69.18
2022-12-08T00:02:26.334Z,69.18
2022-12-08T00:03:26.416Z,69.18
2022-12-08T00:04:26.263Z,69.18
2022-12-08T00:05:26.269Z,69.18
2022-12-08T00:06:26.257Z,69.18
2022-12-08T00:07:26.259Z,69.18
2022-12-08T00:08:26.309Z,69.18
2022-12-08T00:09:26.263Z,69.18
2022-12-08T00:10:48.248Z,69.18
2022-12-08T00:11:26.267Z,69.18
2022-12-08T00:12:26.262Z,69.18
2022-12-08T00:13:26.265Z,69.18
2022-12-08T00:14:26.265Z,69.18
2022-12-08T00:15:26.272Z,69.18
2022-12-08T00:16:26.335Z,69.18
2022-12-08T00:17:26.266Z,69.18
2022-12-08T00:18:26.270Z,69.18
2022-12-08T00:19:26.265Z,69.18
2022-12-08T00:20:26.271Z,69.18
2022-12-08T00:21:26.274Z,69.18
2022-12-08T00:22:26.270Z,69.18
2022-12-08T00:23:26.271Z,69.18
2022-12-08T00:24:26.296Z,69.18
2022-12-08T00:25:26.265Z,69.18
2022-12-08T00:26:26.291Z,69.18
2022-12-08T00:27:26.271Z,69.18
2022-12-08T00:28:26.283Z,69.18
2022-12-08T00:29:26.282Z,69.18
2022-12-08T00:30:26.286Z,69.18
2022-12-08T00:31:26.358Z,69.18
2022-12-08T00:32:26.275Z,69.18
2022-12-08T00:33:26.275Z,69.18
2022-12-08T00:34:26.268Z,69.18
2022-12-08T00:35:26.296Z,69.18
2022-12-08T00:36:26.282Z,69.18
2022-12-08T00:37:26.280Z,69.18
2022-12-08T00:38:26.300Z,69.18
2022-12-08T00:39:26.285Z,69.18
2022-12-08T00:40:26.285Z,69.18
2022-12-08T00:41:26.278Z,69.18
2022-12-08T00:42:26.308Z,69.18
2022-12-08T00:43:26.288Z,69.18
2022-12-08T00:44:26.273Z,69.18
2022-12-08T00:45:26.296Z,69.18
2022-12-08T00:46:26.321Z,69.18
2022-12-08T00:47:26.281Z,69.18
2022-12-08T00:48:26.287Z,69.18
2022-12-08T00:49:26.297Z,69.18
2022-12-08T00:50:26.291Z,69.18
2022-12-08T00:51:26.281Z,69.18
2022-12-08T00:52:26.288Z,69.18
2022-12-08T00:53:26.288Z,69.18
2022-12-08T00:54:26.286Z,69.18
2022-12-08T00:55:26.285Z,69.18
2022-12-08T00:56:26.284Z,69.18
2022-12-08T00:57:26.284Z,69.18
2022-12-08T00:58:26.315Z,69.18
2022-12-08T00:59:26.289Z,69.18
2022-12-08T01:00:26.308Z,69.18
2022-12-08T01:01:26.325Z,69.18
2022-12-08T01:02:26.288Z,69.18
2022-12-08T01:03:26.315Z,69.18
2022-12-08T01:04:26.288Z,69.18
2022-12-08T01:05:26.287Z,69.18
2022-12-08T01:06:26.296Z,69.18
2022-12-08T01:07:26.289Z,69.18
2022-12-08T01:08:26.371Z,69.18
2022-12-08T01:09:26.293Z,69.18
2022-12-08T01:10:26.295Z,69.18
2022-12-08T01:11:26.292Z,69.18
2022-12-08T01:12:26.291Z,69.18
2022-12-08T01:13:26.282Z,69.18
2022-12-08T01:14:26.308Z,69.18
2022-12-08T01:15:26.293Z,69.18
2022-12-08T01:16:26.433Z,69.18
2022-12-08T01:17:26.294Z,69.18
2022-12-08T01:18:26.282Z,69.18
2022-12-08T01:19:26.291Z,69.18
2022-12-08T01:20:26.281Z,69.18
2022-12-08T01:21:26.299Z,69.18
2022-12-08T01:22:26.287Z,69.18
2022-12-08T01:23:26.296Z,69.18
2022-12-08T01:24:26.295Z,69.18
2022-12-08T01:25:26.292Z,69.18
2022-12-08T01:26:26.289Z,69.18
2022-12-08T01:27:26.296Z,69.18
2022-12-08T01:28:26.294Z,69.18
2022-12-08T01:29:26.294Z,69.18
2022-12-08T01:30:26.401Z,69.18
2022-12-08T01:31:26.362Z,69.18
2022-12-08T01:32:26.300Z,69.18
2022-12-08T01:33:26.303Z,69.18
2022-12-08T01:34:26.304Z,69.18
2022-12-08T01:35:26.308Z,69.18
2022-12-08T01:36:26.303Z,69.18
2022-12-08T01:37:26.305Z,69.18
2022-12-08T01:38:26.315Z,69.18
2022-12-08T01:39:26.312Z,69.18
2022-12-08T01:40:26.309Z,69.18
2022-12-08T01:41:26.311Z,69.18
2022-12-08T01:42:26.316Z,69.18
2022-12-08T01:43:26.314Z,69.18
2022-12-08T01:44:26.299Z,69.18
2022-12-08T01:45:26.303Z,69.18
2022-12-08T01:46:26.411Z,69.18
2022-12-08T01:47:26.313Z,69.18
2022-12-08T01:48:26.349Z,69.18
2022-12-08T01:49:26.317Z,69.18
2022-12-08T01:50:26.306Z,69.18
2022-12-08T01:51:26.310Z,69.18
2022-12-08T01:52:26.329Z,69.18
2022-12-08T01:53:26.311Z,69.18
2022-12-08T01:54:26.320Z,69.18
2022-12-08T01:55:26.317Z,69.18
2022-12-08T01:56:26.316Z,69.18
2022-12-08T01:57:26.317Z,69.18
2022-12-08T01:58:26.315Z,69.18
2022-12-08T01:59:26.318Z,69.18
2022-12-08T02:00:26.317Z,69.18
2022-12-08T02:01:26.416Z,69.18
2022-12-08T02:02:26.373Z,69.18
2022-12-08T02:03:26.324Z,69.18
2022-12-08T02:04:26.325Z,69.18
2022-12-08T02:05:26.336Z,69.18
2022-12-08T02:06:26.316Z,69.18
2022-12-08T02:07:26.327Z,69.18
2022-12-08T02:08:26.416Z,69.18
2022-12-08T02:09:26.331Z,69.18
2022-12-08T02:10:26.330Z,69.18
2022-12-08T02:11:26.327Z,69.18
2022-12-08T02:12:26.340Z,69.18
2022-12-08T02:13:26.338Z,69.18
2022-12-08T02:14:26.327Z,69.18
2022-12-08T02:15:26.351Z,79.06
2022-12-08T02:16:26.403Z,59.29
2022-12-08T02:17:26.331Z,59.29
2022-12-08T02:18:26.358Z,59.29
2022-12-08T02:19:31.001Z,118.59
2022-12-08T02:20:26.335Z,129.88
2022-12-08T02:21:26.340Z,57.88
2022-12-08T02:22:26.335Z,57.88
2022-12-08T02:23:26.341Z,132.71
2022-12-08T02:24:26.342Z,60.71
2022-12-08T02:25:26.346Z,129.88
2022-12-08T02:26:26.335Z,66.35
2022-12-08T02:27:26.336Z,62.12
2022-12-08T02:28:26.341Z,103.06
2022-12-08T02:29:26.335Z,132.71
2022-12-08T02:30:26.399Z,96
2022-12-08T02:31:26.370Z,76.24
2022-12-08T02:32:26.349Z,94.59
2022-12-08T02:33:26.340Z,101.65
2022-12-08T02:34:26.383Z,141.18
2022-12-08T02:35:26.348Z,103.06
2022-12-08T02:36:26.342Z,103.06
2022-12-08T02:37:26.389Z,80.47
2022-12-08T02:38:26.353Z,80.47
2022-12-08T02:39:26.349Z,80.47
2022-12-08T02:40:26.355Z,80.47
2022-12-08T02:41:26.364Z,80.47
2022-12-08T02:42:26.352Z,80.47
2022-12-08T02:43:26.344Z,80.47
2022-12-08T02:44:26.346Z,80.47
2022-12-08T02:45:26.360Z,80.47
2022-12-08T02:46:26.390Z,80.47
2022-12-08T02:47:26.378Z,80.47
2022-12-08T02:48:26.401Z,80.47
2022-12-08T02:49:26.353Z,80.47
2022-12-08T02:50:26.377Z,80.47
2022-12-08T02:51:26.364Z,80.47
2022-12-08T02:52:26.359Z,80.47
2022-12-08T02:53:26.356Z,80.47
2022-12-08T02:54:26.368Z,80.47
2022-12-08T02:55:26.369Z,80.47
2022-12-08T02:56:26.370Z,80.47
2022-12-08T02:57:26.361Z,80.47
2022-12-08T02:58:26.365Z,80.47
2022-12-08T02:59:26.376Z,80.47
2022-12-08T03:00:26.378Z,80.47
2022-12-08T03:01:26.448Z,80.47
2022-12-08T03:02:26.423Z,80.47
2022-12-08T03:03:26.366Z,80.47
2022-12-08T03:04:26.371Z,80.47
2022-12-08T03:05:26.360Z,80.47
2022-12-08T03:06:26.385Z,80.47
2022-12-08T03:07:26.367Z,80.47
2022-12-08T03:08:26.410Z,80.47
2022-12-08T03:09:26.363Z,80.47
2022-12-08T03:10:26.371Z,80.47
2022-12-08T03:11:26.381Z,100.24
2022-12-08T03:12:26.375Z,100.24
2022-12-08T03:13:26.381Z,100.24
2022-12-08T03:14:26.385Z,100.24
2022-12-08T03:15:26.363Z,100.24
2022-12-08T03:16:26.474Z,100.24
2022-12-08T03:17:26.382Z,100.24
2022-12-08T03:18:26.383Z,100.24
2022-12-08T03:19:26.376Z,100.24
2022-12-08T03:20:26.376Z,100.24
2022-12-08T03:21:26.373Z,100.24
2022-12-08T03:22:26.414Z,100.24
2022-12-08T03:23:26.376Z,100.24
2022-12-08T03:24:26.417Z,100.24
2022-12-08T03:25:26.377Z,100.24
2022-12-08T03:26:26.394Z,100.24
2022-12-08T03:27:26.384Z,98.82
2022-12-08T03:28:26.385Z,83.29
2022-12-08T03:29:26.381Z,83.29
2022-12-08T03:30:26.387Z,83.29
2022-12-08T03:31:26.422Z,83.29
2022-12-08T03:32:26.384Z,83.29
2022-12-08T03:33:26.385Z,83.29
2022-12-08T03:34:26.391Z,83.29
2022-12-08T03:35:26.387Z,83.29
2022-12-08T03:36:26.377Z,83.29
2022-12-08T03:37:26.391Z,83.29
2022-12-08T03:38:26.415Z,83.29
2022-12-08T03:39:26.393Z,83.29
2022-12-08T03:40:26.390Z,83.29
2022-12-08T03:41:26.389Z,83.29
2022-12-08T03:42:26.388Z,83.29
2022-12-08T03:43:26.410Z,83.29
2022-12-08T03:44:26.394Z,83.29
2022-12-08T03:45:26.391Z,83.29
2022-12-08T03:47:26.424Z,83.29
2022-12-08T03:48:26.397Z,83.29
2022-12-08T03:49:26.396Z,83.29
2022-12-08T03:50:26.383Z,83.29
2022-12-08T03:51:26.401Z,83.29
2022-12-08T03:52:26.402Z,83.29
2022-12-08T03:53:26.386Z,83.29
2022-12-08T03:54:26.419Z,83.29
2022-12-08T03:55:26.393Z,83.29
2022-12-08T03:56:26.403Z,83.29
2022-12-08T03:57:26.404Z,83.29
2022-12-08T03:58:26.397Z,83.29
2022-12-08T03:59:26.402Z,83.29
2022-12-08T04:00:26.405Z,83.29
2022-12-08T04:01:26.434Z,83.29
2022-12-08T04:02:26.456Z,83.29
2022-12-08T04:03:26.491Z,83.29
2022-12-08T04:04:26.405Z,83.29
2022-12-08T04:05:26.426Z,83.29
2022-12-08T04:06:26.394Z,83.29
2022-12-08T04:07:26.434Z,83.29
2022-12-08T04:08:26.457Z,83.29
2022-12-08T04:09:26.393Z,83.29
2022-12-08T04:10:26.428Z,83.29
2022-12-08T04:11:26.404Z,83.29
2022-12-08T04:12:26.447Z,83.29
2022-12-08T04:13:26.427Z,83.29
2022-12-08T04:14:26.412Z,83.29
2022-12-08T04:15:26.411Z,83.29
2022-12-08T04:16:26.416Z,83.29
2022-12-08T04:17:26.444Z,83.29
2022-12-08T04:18:26.406Z,83.29
2022-12-08T04:19:26.409Z,83.29
2022-12-08T04:20:26.416Z,83.29
2022-12-08T04:21:26.408Z,83.29
2022-12-08T04:22:26.427Z,83.29
2022-12-08T04:23:26.417Z,83.29
2022-12-08T04:24:26.445Z,83.29
2022-12-08T04:25:26.425Z,83.29
2022-12-08T04:26:26.457Z,83.29
2022-12-08T04:27:26.425Z,83.29
2022-12-08T04:28:26.446Z,83.29
2022-12-08T04:29:26.431Z,83.29
2022-12-08T04:30:26.439Z,83.29
2022-12-08T04:31:26.495Z,83.29
2022-12-08T04:32:26.427Z,83.29
2022-12-08T04:33:26.430Z,83.29
2022-12-08T04:34:26.424Z,83.29
2022-12-08T04:35:26.425Z,83.29
2022-12-08T04:36:26.430Z,83.29
2022-12-08T04:37:26.443Z,83.29
2022-12-08T04:38:26.422Z,83.29
2022-12-08T04:39:26.434Z,83.29
2022-12-08T04:40:26.431Z,83.29
2022-12-08T04:41:26.449Z,83.29
2022-12-08T04:42:26.453Z,83.29
2022-12-08T04:43:26.434Z,83.29
2022-12-08T04:44:26.444Z,83.29
2022-12-08T04:45:26.437Z,83.29
2022-12-08T04:46:26.497Z,83.29
2022-12-08T04:47:26.432Z,83.29
2022-12-08T04:48:26.432Z,83.29
2022-12-08T04:49:26.471Z,83.29
2022-12-08T04:50:26.427Z,83.29
2022-12-08T04:51:26.430Z,83.29
2022-12-08T04:52:26.437Z,83.29
2022-12-08T04:53:26.428Z,83.29
2022-12-08T04:54:26.432Z,83.29
2022-12-08T04:55:26.428Z,83.29
2022-12-08T04:56:26.442Z,83.29
2022-12-08T04:57:26.447Z,83.29
2022-12-08T04:58:26.479Z,83.29
2022-12-08T04:59:26.429Z,83.29
2022-12-08T05:00:26.438Z,83.29
2022-12-08T05:01:26.502Z,83.29
2022-12-08T05:02:26.488Z,83.29
2022-12-08T05:03:28.636Z,83.29
2022-12-08T05:04:26.440Z,83.29
2022-12-08T05:05:26.447Z,83.29
2022-12-08T05:06:26.439Z,83.29
2022-12-08T05:07:26.438Z,83.29
2022-12-08T05:08:26.520Z,83.29
2022-12-08T05:09:26.439Z,83.29
2022-12-08T05:10:26.446Z,83.29
2022-12-08T05:11:26.443Z,83.29
2022-12-08T05:12:26.439Z,83.29
2022-12-08T05:13:26.443Z,83.29
2022-12-08T05:14:26.467Z,83.29
2022-12-08T05:15:26.442Z,83.29
2022-12-08T05:16:26.596Z,83.29
2022-12-08T05:17:26.433Z,83.29
2022-12-08T05:18:26.449Z,83.29
2022-12-08T05:19:26.458Z,83.29
2022-12-08T05:20:26.450Z,83.29
2022-12-08T05:21:26.471Z,83.29
2022-12-08T05:22:26.459Z,83.29
2022-12-08T05:23:26.452Z,83.29
2022-12-08T05:24:26.452Z,83.29
2022-12-08T05:25:26.446Z,83.29
2022-12-08T05:26:26.453Z,83.29
2022-12-08T05:27:26.473Z,83.29
2022-12-08T05:28:43.219Z,83.29
2022-12-08T05:29:26.446Z,83.29
2022-12-08T05:30:26.481Z,83.29
2022-12-08T05:31:26.513Z,83.29
2022-12-08T05:32:26.460Z,83.29
2022-12-08T05:33:26.468Z,83.29
2022-12-08T05:34:26.452Z,83.29
2022-12-08T05:35:26.453Z,83.29
2022-12-08T05:36:26.463Z,83.29
2022-12-08T05:37:26.455Z,83.29
2022-12-08T05:38:26.476Z,83.29
2022-12-08T05:39:26.468Z,83.29
2022-12-08T05:40:26.461Z,83.29
2022-12-08T05:41:26.455Z,83.29
2022-12-08T05:42:26.465Z,83.29
2022-12-08T05:43:26.472Z,83.29
2022-12-08T05:44:26.468Z,83.29
2022-12-08T05:45:26.529Z,83.29
2022-12-08T05:46:26.601Z,83.29
2022-12-08T05:47:26.469Z,83.29
2022-12-08T05:48:26.501Z,83.29
2022-12-08T05:49:26.468Z,83.29
2022-12-08T05:50:26.487Z,83.29
2022-12-08T05:51:26.478Z,83.29
2022-12-08T05:52:26.470Z,83.29
2022-12-08T05:53:26.481Z,83.29
2022-12-08T05:54:26.476Z,83.29
2022-12-08T05:55:26.473Z,83.29
2022-12-08T05:56:26.470Z,83.29
2022-12-08T05:57:26.478Z,83.29
2022-12-08T05:58:26.476Z,83.29
2022-12-08T05:59:26.492Z,83.29
2022-12-08T06:00:26.472Z,83.29
2022-12-08T06:01:26.464Z,83.29
2022-12-08T06:02:26.669Z,83.29
2022-12-08T06:03:26.514Z,83.29
2022-12-08T06:04:26.467Z,83.29
2022-12-08T06:05:26.478Z,83.29
2022-12-08T06:06:26.479Z,83.29
2022-12-08T06:07:26.475Z,83.29
2022-12-08T06:08:26.526Z,83.29
2022-12-08T06:09:26.478Z,83.29
2022-12-08T06:10:26.477Z,83.29
2022-12-08T06:11:26.495Z,83.29
2022-12-08T06:12:26.473Z,83.29
2022-12-08T06:13:26.480Z,83.29
2022-12-08T06:14:26.479Z,83.29
2022-12-08T06:15:26.479Z,83.29
2022-12-08T06:16:26.606Z,83.29
2022-12-08T06:17:26.480Z,83.29
2022-12-08T06:18:31.190Z,83.29
2022-12-08T06:19:26.496Z,83.29
2022-12-08T06:20:26.477Z,83.29
2022-12-08T06:21:26.491Z,83.29
2022-12-08T06:22:26.485Z,83.29
2022-12-08T06:23:26.474Z,83.29
2022-12-08T06:24:26.500Z,83.29
2022-12-08T06:25:26.487Z,83.29
2022-12-08T06:26:26.485Z,83.29
2022-12-08T06:27:26.478Z,83.29
2022-12-08T06:28:26.477Z,83.29
2022-12-08T06:29:26.476Z,83.29
2022-12-08T06:30:26.493Z,83.29
2022-12-08T06:31:26.601Z,83.29
2022-12-08T06:32:27.654Z,83.29
2022-12-08T06:33:26.483Z,83.29
2022-12-08T06:34:26.508Z,83.29
2022-12-08T06:35:26.488Z,83.29
2022-12-08T06:36:26.486Z,83.29
2022-12-08T06:37:26.495Z,83.29
2022-12-08T06:38:26.531Z,83.29
2022-12-08T06:39:26.492Z,83.29
2022-12-08T06:40:26.495Z,83.29
2022-12-08T06:41:26.518Z,83.29
2022-12-08T06:42:26.493Z,83.29
2022-12-08T06:43:26.490Z,83.29
2022-12-08T06:44:26.492Z,83.29
2022-12-08T06:45:26.503Z,83.29
2022-12-08T06:46:26.573Z,83.29
2022-12-08T06:47:26.604Z,83.29
2022-12-08T06:48:26.495Z,83.29
2022-12-08T06:49:26.494Z,83.29
2022-12-08T06:50:26.526Z,83.29
2022-12-08T06:51:26.490Z,83.29
2022-12-08T06:52:26.501Z,83.29
2022-12-08T06:53:26.527Z,105.88
2022-12-08T06:54:26.501Z,105.88
2022-12-08T06:55:51.149Z,105.88
2022-12-08T06:56:26.493Z,105.88
2022-12-08T06:57:26.504Z,105.88
2022-12-08T06:58:26.504Z,105.88
2022-12-08T06:59:26.499Z,105.88
2022-12-08T07:00:26.503Z,105.88
2022-12-08T07:01:26.563Z,105.88
2022-12-08T07:02:26.553Z,105.88
2022-12-08T07:03:26.500Z,105.88
2022-12-08T07:04:26.506Z,105.88
2022-12-08T07:05:26.491Z,105.88
2022-12-08T07:06:26.525Z,105.88
2022-12-08T07:07:26.507Z,105.88
2022-12-08T07:08:26.590Z,105.88
2022-12-08T07:09:26.523Z,105.88
2022-12-08T07:10:26.506Z,105.88
2022-12-08T07:11:26.523Z,105.88
2022-12-08T07:12:26.503Z,105.88
2022-12-08T07:13:26.523Z,105.88
2022-12-08T07:14:26.519Z,105.88
2022-12-08T07:15:26.508Z,105.88
2022-12-08T07:16:26.555Z,105.88
2022-12-08T07:17:26.527Z,105.88
2022-12-08T07:18:26.509Z,105.88
2022-12-08T07:19:26.530Z,105.88
2022-12-08T07:20:26.524Z,105.88
2022-12-08T07:21:26.507Z,105.88
2022-12-08T07:22:26.537Z,105.88
2022-12-08T07:23:26.504Z,105.88
2022-12-08T07:24:26.509Z,105.88
2022-12-08T07:25:26.517Z,105.88
2022-12-08T07:26:26.519Z,105.88
2022-12-08T07:27:26.511Z,105.88
2022-12-08T07:28:26.520Z,105.88
2022-12-08T07:29:26.633Z,105.88
2022-12-08T07:30:26.585Z,105.88
2022-12-08T07:31:26.574Z,105.88
2022-12-08T07:32:26.517Z,105.88
2022-12-08T07:33:26.523Z,105.88
2022-12-08T07:34:26.520Z,105.88
2022-12-08T07:35:26.517Z,105.88
2022-12-08T07:36:26.542Z,105.88
2022-12-08T07:37:26.520Z,105.88
2022-12-08T07:38:26.549Z,105.88
2022-12-08T07:39:26.552Z,105.88
2022-12-08T07:40:26.619Z,105.88
2022-12-08T07:41:26.524Z,105.88
2022-12-08T07:42:26.536Z,105.88
2022-12-08T07:43:26.525Z,105.88
2022-12-08T07:44:26.546Z,105.88
2022-12-08T07:45:31.374Z,105.88
2022-12-08T07:46:26.625Z,105.88
2022-12-08T07:47:26.520Z,105.88
2022-12-08T07:48:26.547Z,105.88
2022-12-08T07:49:26.519Z,105.88
2022-12-08T07:50:26.534Z,189.18
2022-12-08T07:51:26.546Z,196.24
2022-12-08T07:52:26.532Z,207.53
2022-12-08T07:53:26.529Z,182.12
2022-12-08T07:54:26.551Z,211.76
2022-12-08T07:55:26.533Z,208.94
2022-12-08T07:56:26.515Z,210.35
2022-12-08T07:57:26.540Z,214.59
2022-12-08T07:58:26.567Z,196.24
2022-12-08T07:59:26.565Z,218.82
2022-12-08T08:00:26.533Z,216
2022-12-08T08:01:26.670Z,213.18
2022-12-08T08:02:26.745Z,242.82
2022-12-08T08:03:26.534Z,176.47
2022-12-08T08:04:26.588Z,241.41
2022-12-08T08:05:26.533Z,247.06
2022-12-08T08:06:26.528Z,247.06
2022-12-08T08:07:26.533Z,218.82
2022-12-08T08:08:26.582Z,199.06
2022-12-08T08:09:26.539Z,201.88
2022-12-08T08:10:26.671Z,179.29
2022-12-08T08:11:26.542Z,268.24
2022-12-08T08:12:31.564Z,189.18
2022-12-08T08:13:26.535Z,196.24
2022-12-08T08:14:26.536Z,249.88
2022-12-08T08:15:26.536Z,194.82
2022-12-08T08:16:26.665Z,177.88
2022-12-08T08:17:26.659Z,177.88
2022-12-08T08:18:26.558Z,177.88
2022-12-08T08:19:26.551Z,177.88
2022-12-08T08:20:26.574Z,177.88
2022-12-08T08:21:44.822Z,177.88
2022-12-08T08:22:26.540Z,138.35
2022-12-08T08:23:26.539Z,136.94
2022-12-08T08:24:26.565Z,136.94
2022-12-08T08:25:26.536Z,136.94
2022-12-08T08:26:26.562Z,136.94
2022-12-08T08:27:26.540Z,136.94
2022-12-08T08:28:26.541Z,152.47
2022-12-08T08:29:26.538Z,170.82
2022-12-08T08:30:26.621Z,180.71
2022-12-08T08:31:26.586Z,182.12
2022-12-08T08:32:26.543Z,160.94
2022-12-08T08:33:26.538Z,176.47
2022-12-08T08:34:26.548Z,138.35
2022-12-08T08:35:26.534Z,86.12
2022-12-08T08:36:26.536Z,165.18
2022-12-08T08:37:26.587Z,138.35
2022-12-08T08:38:26.537Z,153.88
2022-12-08T08:39:26.571Z,187.76
2022-12-08T08:40:26.591Z,76.24
2022-12-08T08:41:26.532Z,144
2022-12-08T08:42:26.585Z,158.12
2022-12-08T08:43:26.542Z,201.88
2022-12-08T08:44:26.585Z,183.53
2022-12-08T08:45:26.546Z,184.94
2022-12-08T08:46:26.627Z,155.29
2022-12-08T08:47:26.546Z,115.76
2022-12-08T08:48:26.552Z,144
2022-12-08T08:49:26.587Z,127.06
2022-12-08T08:50:26.555Z,146.82
2022-12-08T08:51:26.560Z,145.41
2022-12-08T08:52:26.549Z,166.59
2022-12-08T08:53:26.552Z,134.12
2022-12-08T08:54:26.580Z,149.65
2022-12-08T08:55:26.545Z,148.24
2022-12-08T08:56:26.552Z,132.71
2022-12-08T08:57:26.545Z,141.18
2022-12-08T08:58:26.571Z,108.71
2022-12-08T08:59:26.544Z,152.47
2022-12-08T09:00:26.556Z,187.76
2022-12-08T09:01:26.595Z,159.53
2022-12-08T09:02:26.551Z,169.41
2022-12-08T09:03:26.559Z,127.06
2022-12-08T09:04:26.606Z,193.41
2022-12-08T09:05:26.609Z,135.53
2022-12-08T09:06:26.638Z,168
2022-12-08T09:07:26.566Z,129.88
2022-12-08T09:08:26.635Z,176.47
2022-12-08T09:09:26.545Z,183.53
2022-12-08T09:10:26.548Z,190.59
2022-12-08T09:11:26.578Z,200.47
2022-12-08T09:12:26.554Z,176.47
2022-12-08T09:13:26.554Z,189.18
2022-12-08T09:14:26.580Z,132.71
2022-12-08T09:15:26.571Z,129.88
2022-12-08T09:16:26.650Z,151.06
2022-12-08T09:17:26.605Z,159.53
2022-12-08T09:18:26.563Z,156.71
2022-12-08T09:19:26.557Z,153.88
2022-12-08T09:20:26.548Z,163.76
2022-12-08T09:21:26.553Z,149.65
2022-12-08T09:22:26.568Z,168
2022-12-08T09:23:29.409Z,189.18
2022-12-08T09:24:26.607Z,160.94
2022-12-08T09:25:26.557Z,172.24
2022-12-08T09:26:26.566Z,156.71
2022-12-08T09:27:26.565Z,153.88
2022-12-08T09:28:26.556Z,194.82
2022-12-08T09:29:29.845Z,172.24
2022-12-08T09:30:26.599Z,172.24
2022-12-08T09:31:26.641Z,172.24
2022-12-08T09:32:26.565Z,172.24
2022-12-08T09:33:26.570Z,172.24
2022-12-08T09:34:26.565Z,170.82
2022-12-08T09:35:26.568Z,152.47
2022-12-08T09:36:26.558Z,176.47
2022-12-08T09:37:26.585Z,177.88
2022-12-08T09:38:26.572Z,172.24
2022-12-08T09:39:26.588Z,118.59
2022-12-08T09:40:26.558Z,158.12
2022-12-08T09:41:29.402Z,144
2022-12-08T09:42:26.564Z,144
2022-12-08T09:43:26.567Z,144
2022-12-08T09:44:26.602Z,144
2022-12-08T09:45:26.565Z,163.76
2022-12-08T09:46:26.652Z,153.88
2022-12-08T09:47:29.471Z,168
2022-12-08T09:48:26.568Z,158.12
2022-12-08T09:49:26.574Z,165.18
2022-12-08T09:50:26.570Z,192
2022-12-08T09:51:26.573Z,168
2022-12-08T09:52:26.575Z,136.94
2022-12-08T09:53:30.673Z,142.59
2022-12-08T09:54:26.572Z,134.12
2022-12-08T09:55:26.574Z,145.41
2022-12-08T09:56:26.571Z,153.88
2022-12-08T09:57:26.573Z,194.82
2022-12-08T09:58:26.570Z,172.24
2022-12-08T09:59:26.576Z,160.94
2022-12-08T10:00:26.582Z,166.59
2022-12-08T10:01:26.629Z,175.06
2022-12-08T10:02:26.599Z,159.53
2022-12-08T10:03:26.576Z,156.71
2022-12-08T10:04:26.580Z,156.71
2022-12-08T10:05:26.623Z,156.71
2022-12-08T10:06:26.573Z,156.71
2022-12-08T10:07:26.577Z,156.71
2022-12-08T10:08:26.643Z,156.71
2022-12-08T10:09:26.562Z,156.71
2022-12-08T10:10:26.574Z,156.71
2022-12-08T10:11:26.583Z,227.29
2022-12-08T10:12:26.579Z,214.59
2022-12-08T10:13:26.579Z,268.24
2022-12-08T10:14:26.618Z,259.76
2022-12-08T10:15:26.576Z,261.18
2022-12-08T10:16:29.672Z,245.65
2022-12-08T10:17:26.573Z,265.41
2022-12-08T10:18:26.599Z,196.24
2022-12-08T10:19:26.576Z,245.65
2022-12-08T10:20:26.574Z,256.94
2022-12-08T10:21:26.612Z,271.06
2022-12-08T10:22:26.575Z,273.88
2022-12-08T10:23:26.583Z,272.47
2022-12-08T10:24:26.580Z,269.65
2022-12-08T10:25:26.573Z,289.41
2022-12-08T10:26:26.564Z,272.47
2022-12-08T10:27:26.564Z,261.18
2022-12-08T10:28:26.604Z,251.29
2022-12-08T10:29:26.604Z,262.59
2022-12-08T10:30:26.589Z,221.65
2022-12-08T10:31:26.653Z,221.65
2022-12-08T10:32:26.576Z,221.65
2022-12-08T10:33:26.577Z,221.65
2022-12-08T10:34:26.627Z,221.65
2022-12-08T10:35:26.577Z,221.65
2022-12-08T10:36:26.570Z,221.65
2022-12-08T10:37:26.578Z,221.65
2022-12-08T10:38:26.576Z,221.65
2022-12-08T10:39:26.578Z,221.65
2022-12-08T10:40:26.586Z,199.06
2022-12-08T10:41:26.580Z,248.47
2022-12-08T10:42:26.607Z,255.53
2022-12-08T10:43:26.576Z,225.88
2022-12-08T10:44:26.579Z,217.41
2022-12-08T10:45:26.586Z,237.18
2022-12-08T10:46:26.644Z,227.29
2022-12-08T10:47:26.585Z,244.24
2022-12-08T10:48:26.578Z,235.76
2022-12-08T10:49:26.580Z,208.94
2022-12-08T10:50:26.614Z,208.94
2022-12-08T10:51:26.577Z,208.94
2022-12-08T10:52:26.591Z,208.94
2022-12-08T10:53:26.586Z,208.94
2022-12-08T10:54:26.589Z,197.65
2022-12-08T10:55:26.581Z,160.94
2022-12-08T10:56:26.582Z,173.65
2022-12-08T10:57:26.606Z,168
2022-12-08T10:58:26.588Z,168
2022-12-08T10:59:26.622Z,168
2022-12-08T11:00:26.637Z,168
2022-12-08T11:01:26.698Z,168
2022-12-08T11:02:26.739Z,168
2022-12-08T11:03:26.606Z,168
2022-12-08T11:04:26.642Z,168
2022-12-08T11:05:26.577Z,168
2022-12-08T11:06:26.614Z,168
2022-12-08T11:07:26.599Z,176.47
2022-12-08T11:08:26.722Z,135.53
2022-12-08T11:09:26.596Z,135.53
2022-12-08T11:10:26.620Z,135.53
2022-12-08T11:11:29.454Z,237.18
2022-12-08T11:12:26.585Z,152.47
2022-12-08T11:13:26.585Z,197.65
2022-12-08T11:14:26.578Z,216
2022-12-08T11:15:26.583Z,203.29
2022-12-08T11:16:26.628Z,213.18
2022-12-08T11:17:26.591Z,208.94
2022-12-08T11:18:26.585Z,165.18
2022-12-08T11:19:26.588Z,210.35
2022-12-08T11:20:26.595Z,169.41
2022-12-08T11:21:26.579Z,242.82
2022-12-08T11:22:26.630Z,247.06
2022-12-08T11:23:26.590Z,235.76
2022-12-08T11:24:26.593Z,196.24
2022-12-08T11:25:26.587Z,210.35
2022-12-08T11:26:26.582Z,242.82
2022-12-08T11:27:26.584Z,273.88
2022-12-08T11:28:26.581Z,216
2022-12-08T11:29:26.590Z,244.24
2022-12-08T11:30:26.584Z,251.29
2022-12-08T11:31:26.658Z,217.41
2022-12-08T11:32:26.594Z,237.18
2022-12-08T11:33:26.578Z,237.18
2022-12-08T11:34:26.585Z,214.59
2022-12-08T11:35:26.587Z,214.59
2022-12-08T11:36:26.593Z,214.59
2022-12-08T11:37:29.891Z,214.59
2022-12-08T11:38:26.627Z,216
2022-12-08T11:39:26.584Z,197.65
2022-12-08T11:40:26.593Z,192
2022-12-08T11:41:26.602Z,192
2022-12-08T11:42:26.656Z,192
2022-12-08T11:43:26.608Z,245.65
2022-12-08T11:44:26.592Z,245.65
2022-12-08T11:45:26.590Z,155.29
2022-12-08T11:46:26.636Z,232.94
2022-12-08T11:47:26.608Z,242.82
2022-12-08T11:48:26.592Z,242.82
2022-12-08T11:49:26.587Z,242.82
2022-12-08T11:50:26.603Z,242.82
2022-12-08T11:51:26.591Z,190.59
2022-12-08T11:52:26.595Z,168
2022-12-08T11:53:26.590Z,168
2022-12-08T11:54:26.617Z,168
2022-12-08T11:55:26.594Z,168
2022-12-08T11:56:26.585Z,168
2022-12-08T11:57:26.611Z,168
2022-12-08T11:58:26.686Z,227.29
2022-12-08T11:59:26.607Z,241.41
2022-12-08T12:00:26.603Z,217.41
2022-12-08T12:01:26.600Z,199.06
2022-12-08T12:02:26.673Z,180.71
2022-12-08T12:03:26.671Z,199.06
2022-12-08T12:04:26.602Z,221.65
2022-12-08T12:05:40.066Z,231.53
2022-12-08T12:06:55.852Z,228.71
2022-12-08T12:07:26.767Z,264
2022-12-08T12:08:26.626Z,245.65
2022-12-08T12:09:26.589Z,235.76
2022-12-08T12:10:26.611Z,208.94
2022-12-08T12:11:26.591Z,213.18
2022-12-08T12:12:26.596Z,213.18
2022-12-08T12:13:26.594Z,213.18
2022-12-08T12:14:26.604Z,276.71
2022-12-08T12:15:26.598Z,272.47
2022-12-08T12:16:26.611Z,211.76
2022-12-08T12:17:26.605Z,244.24
2022-12-08T12:18:26.601Z,240
2022-12-08T12:19:26.588Z,207.53
2022-12-08T12:20:26.598Z,241.41
2022-12-08T12:21:26.595Z,199.06
2022-12-08T12:22:26.629Z,235.76
2022-12-08T12:23:26.597Z,238.59
2022-12-08T12:24:29.389Z,247.06
2022-12-08T12:25:26.604Z,193.41
2022-12-08T12:26:26.627Z,197.65
2022-12-08T12:27:26.603Z,179.29
2022-12-08T12:28:26.615Z,196.24
2022-12-08T12:29:26.670Z,207.53
2022-12-08T12:30:26.677Z,207.53
2022-12-08T12:31:26.647Z,207.53
2022-12-08T12:32:26.622Z,207.53
2022-12-08T12:33:26.611Z,207.53
2022-12-08T12:34:26.611Z,199.06
2022-12-08T12:35:27.422Z,201.88
2022-12-08T12:36:26.665Z,197.65
2022-12-08T12:37:26.627Z,208.94
2022-12-08T12:38:26.621Z,296.47
2022-12-08T12:39:26.620Z,276.71
2022-12-08T12:40:26.630Z,302.12
2022-12-08T12:41:26.622Z,271.06
2022-12-08T12:42:26.651Z,273.88
2022-12-08T12:43:26.619Z,280.94
2022-12-08T12:44:26.625Z,296.47
2022-12-08T12:45:26.624Z,302.12